createdAt,value
2017-09-05T00:01:30.594Z,8.00
2017-09-05T00:03:59.741Z,8.00
2017-09-05T00:06:29.249Z,8.00
2017-09-05T00:08:59.322Z,8.00
2017-09-05T00:11:33.908Z,8.10
2017-09-05T00:17:22.312Z,7.90
2017-09-05T00:19:51.385Z,7.80
2017-09-05T00:22:20.928Z,7.90
2017-09-05T00:24:51.489Z,8.00
2017-09-05T00:27:19.971Z,8.00
2017-09-05T00:29:48.981Z,8.00
2017-09-05T00:32:17.997Z,7.90
2017-09-05T00:34:47.118Z,7.80
2017-09-05T00:37:16.535Z,7.80
2017-09-05T00:39:45.594Z,7.70
2017-09-05T00:42:15.012Z,7.70
2017-09-05T00:44:45.477Z,7.80
2017-09-05T00:47:14.353Z,7.70
2017-09-05T00:49:43.540Z,7.70
2017-09-05T00:52:12.726Z,7.80
2017-09-05T00:54:41.971Z,7.80
2017-09-05T00:57:11.092Z,7.80
2017-09-05T00:59:40.916Z,7.70
2017-09-05T01:02:10.272Z,7.60
2017-09-05T01:04:39.767Z,7.60
2017-09-05T01:07:09.148Z,7.60
2017-09-05T01:09:38.381Z,7.60
2017-09-05T01:12:07.406Z,7.80
2017-09-05T01:14:36.503Z,7.80
2017-09-05T01:17:05.471Z,7.80
2017-09-05T01:19:34.415Z,7.80
2017-09-05T01:22:03.094Z,7.70
2017-09-05T01:24:32.065Z,7.70
2017-09-05T01:27:01.044Z,7.60
2017-09-05T01:29:30.071Z,7.60
2017-09-05T01:31:59.010Z,7.60
2017-09-05T01:34:29.500Z,7.70
2017-09-05T01:36:58.072Z,7.70
2017-09-05T01:39:26.358Z,7.70
2017-09-05T01:41:55.101Z,7.70
2017-09-05T01:44:23.387Z,7.70
2017-09-05T01:46:51.680Z,7.70
2017-09-05T01:49:19.985Z,7.80
2017-09-05T01:51:48.307Z,7.80
2017-09-05T01:54:16.652Z,7.80
2017-09-05T01:56:44.974Z,7.80
2017-09-05T01:59:13.381Z,7.90
2017-09-05T02:01:41.762Z,8.00
2017-09-05T02:04:10.166Z,8.10
2017-09-05T02:06:38.470Z,8.20
2017-09-05T02:09:06.810Z,8.30
2017-09-05T02:11:35.120Z,8.40
2017-09-05T02:14:03.526Z,8.50
2017-09-05T02:16:31.904Z,8.60
2017-09-05T02:19:00.544Z,8.70
2017-09-05T02:21:29.591Z,8.90
2017-09-05T02:23:57.882Z,9.00
2017-09-05T02:26:26.176Z,9.10
2017-09-05T02:28:54.461Z,9.10
2017-09-05T02:31:22.747Z,9.10
2017-09-05T02:33:51.080Z,9.20
2017-09-05T02:36:19.375Z,9.30
2017-09-05T02:38:48.453Z,9.40
2017-09-05T02:41:16.737Z,9.30
2017-09-05T02:43:45.137Z,9.50
2017-09-05T02:46:13.623Z,9.60
2017-09-05T02:48:41.919Z,9.60
2017-09-05T02:51:10.237Z,9.70
2017-09-05T02:53:39.313Z,9.70
2017-09-05T02:56:07.603Z,9.70
2017-09-05T02:58:35.897Z,9.70
2017-09-05T03:01:04.182Z,9.80
2017-09-05T03:03:33.243Z,9.90
2017-09-05T03:06:01.776Z,9.90
2017-09-05T03:08:30.189Z,10.00
2017-09-05T03:10:59.638Z,10.10
2017-09-05T03:13:27.939Z,10.10
2017-09-05T03:15:56.267Z,10.20
2017-09-05T03:18:24.656Z,10.30
2017-09-05T03:20:52.999Z,10.40
2017-09-05T03:23:21.297Z,10.50
2017-09-05T03:25:49.609Z,10.50
2017-09-05T03:28:17.905Z,10.60
2017-09-05T03:30:46.241Z,10.70
2017-09-05T03:33:14.594Z,10.80
2017-09-05T03:35:43.442Z,10.90
2017-09-05T03:38:11.743Z,11.00
2017-09-05T03:40:40.034Z,11.10
2017-09-05T03:43:08.329Z,11.30
2017-09-05T03:45:36.627Z,11.40
2017-09-05T03:48:04.920Z,11.50
2017-09-05T03:50:33.230Z,11.50
2017-09-05T03:53:01.783Z,11.70
2017-09-05T03:55:30.082Z,11.70
2017-09-05T03:57:58.392Z,11.80
2017-09-05T04:00:26.681Z,11.80
2017-09-05T04:02:54.971Z,11.70
2017-09-05T04:05:23.261Z,11.60
2017-09-05T04:07:51.562Z,11.70
2017-09-05T04:10:19.869Z,11.70
2017-09-05T04:12:48.946Z,11.70
2017-09-05T04:15:17.247Z,11.60
2017-09-05T04:17:45.555Z,11.70
2017-09-05T04:20:13.850Z,11.70
2017-09-05T04:22:42.148Z,11.70
2017-09-05T04:25:11.098Z,11.80
2017-09-05T04:27:39.827Z,11.80
2017-09-05T04:30:08.126Z,11.80
2017-09-05T04:32:36.428Z,11.80
2017-09-05T04:35:05.493Z,11.90
2017-09-05T04:37:33.783Z,11.90
2017-09-05T04:40:02.415Z,11.90
2017-09-05T04:42:32.141Z,12.10
2017-09-05T04:45:01.060Z,12.00
2017-09-05T04:47:30.056Z,12.10
2017-09-05T04:49:58.785Z,12.20
2017-09-05T04:52:27.701Z,12.20
2017-09-05T04:54:56.295Z,12.20
2017-09-05T04:57:25.192Z,12.30
2017-09-05T04:59:54.069Z,12.30
2017-09-05T05:02:22.910Z,12.30
2017-09-05T05:04:51.862Z,12.30
2017-09-05T05:07:20.921Z,12.40
2017-09-05T05:09:49.945Z,12.40
2017-09-05T05:12:18.831Z,12.40
2017-09-05T05:14:47.917Z,12.40
2017-09-05T05:17:16.915Z,12.50
2017-09-05T05:19:46.152Z,12.50
2017-09-05T05:22:14.775Z,12.60
2017-09-05T05:24:43.489Z,12.70
2017-09-05T05:27:12.446Z,12.70
2017-09-05T05:29:41.331Z,12.80
2017-09-05T05:32:11.142Z,12.90
2017-09-05T05:34:39.957Z,12.80
2017-09-05T05:37:08.747Z,12.90
2017-09-05T05:39:37.422Z,12.90
2017-09-05T05:42:06.265Z,12.90
2017-09-05T05:44:35.142Z,12.90
2017-09-05T05:47:03.945Z,13.00
2017-09-05T05:49:37.864Z,13.10
2017-09-05T05:52:06.508Z,13.20
2017-09-05T05:54:35.358Z,13.30
2017-09-05T05:57:04.638Z,13.30
2017-09-05T05:59:34.312Z,13.40
2017-09-05T06:02:03.120Z,13.30
2017-09-05T06:04:32.777Z,13.50
2017-09-05T06:07:02.194Z,13.50
2017-09-05T06:09:31.307Z,13.60
2017-09-05T06:12:00.289Z,13.70
2017-09-05T06:14:28.745Z,13.90
2017-09-05T06:16:57.584Z,13.90
2017-09-05T06:19:26.357Z,14.00
2017-09-05T06:21:55.335Z,14.10
2017-09-05T06:24:24.015Z,14.10
2017-09-05T06:26:52.849Z,14.10
2017-09-05T06:29:21.697Z,14.10
2017-09-05T06:31:50.652Z,14.20
2017-09-05T06:34:19.626Z,14.40
2017-09-05T06:36:48.267Z,14.60
2017-09-05T06:39:16.974Z,14.80
2017-09-05T06:41:45.907Z,15.00
2017-09-05T06:44:14.937Z,15.20
2017-09-05T06:46:43.585Z,15.30
2017-09-05T06:49:12.337Z,15.20
2017-09-05T06:51:41.336Z,15.40
2017-09-05T06:54:11.028Z,15.40
2017-09-05T06:56:39.927Z,15.30
2017-09-05T06:59:08.757Z,15.50
2017-09-05T07:01:37.517Z,15.50
2017-09-05T07:04:06.538Z,15.70
2017-09-05T07:06:35.412Z,15.70
2017-09-05T07:09:04.347Z,15.90
2017-09-05T07:11:33.401Z,16.00
2017-09-05T07:14:02.480Z,16.00
2017-09-05T07:16:31.109Z,16.10
2017-09-05T07:18:59.583Z,16.10
2017-09-05T07:21:28.045Z,16.10
2017-09-05T07:23:56.530Z,16.20
2017-09-05T07:26:26.221Z,16.80
2017-09-05T07:28:54.756Z,16.70
2017-09-05T07:31:23.683Z,16.90
2017-09-05T07:33:52.075Z,16.90
2017-09-05T07:36:20.455Z,16.80
2017-09-05T07:38:48.795Z,17.00
2017-09-05T07:41:17.239Z,17.00
2017-09-05T07:43:46.481Z,17.00
2017-09-05T07:46:15.980Z,17.10
2017-09-05T07:48:45.188Z,17.10
2017-09-05T07:51:14.236Z,17.30
2017-09-05T07:53:43.504Z,17.60
2017-09-05T07:56:12.816Z,17.80
2017-09-05T07:58:41.272Z,17.60
2017-09-05T08:01:09.562Z,17.90
2017-09-05T08:03:37.876Z,18.00
2017-09-05T08:06:06.158Z,18.10
2017-09-05T08:08:34.477Z,18.20
2017-09-05T08:11:02.964Z,18.30
2017-09-05T08:13:31.270Z,18.20
2017-09-05T08:15:59.620Z,18.20
2017-09-05T08:18:27.919Z,18.50
2017-09-05T08:20:56.206Z,18.80
2017-09-05T08:23:24.811Z,18.80
2017-09-05T08:25:53.120Z,18.70
2017-09-05T08:28:21.402Z,18.60
2017-09-05T08:30:49.693Z,18.70
2017-09-05T08:33:18.006Z,18.70
2017-09-05T08:35:47.070Z,19.00
2017-09-05T08:38:15.382Z,19.00
2017-09-05T08:40:43.690Z,19.00
2017-09-05T08:43:13.249Z,18.90
2017-09-05T08:45:41.845Z,18.90
2017-09-05T08:48:10.750Z,18.90
2017-09-05T08:50:39.317Z,19.00
2017-09-05T08:53:09.980Z,19.10
2017-09-05T08:55:38.371Z,19.10
2017-09-05T08:58:07.385Z,19.20
2017-09-05T09:00:36.307Z,19.30
2017-09-05T09:03:05.120Z,19.50
2017-09-05T09:05:34.140Z,19.60
2017-09-05T09:08:02.541Z,19.60
2017-09-05T09:10:31.144Z,19.70
2017-09-05T09:12:59.792Z,19.60
2017-09-05T09:15:28.918Z,19.60
2017-09-05T09:17:57.780Z,19.40
2017-09-05T09:20:26.367Z,19.40
2017-09-05T09:22:54.679Z,19.20
2017-09-05T09:25:23.094Z,19.40
2017-09-05T09:27:51.379Z,19.70
2017-09-05T09:30:19.780Z,20.00
2017-09-05T09:32:48.064Z,20.40
2017-09-05T09:35:16.343Z,20.80
2017-09-05T09:37:44.651Z,21.10
2017-09-05T09:40:12.967Z,21.30
2017-09-05T09:42:41.288Z,21.50
2017-09-05T09:45:09.575Z,21.50
2017-09-05T09:47:37.858Z,21.70
2017-09-05T09:50:06.142Z,21.70
2017-09-05T09:52:34.429Z,21.90
2017-09-05T09:55:02.744Z,21.70
2017-09-05T09:57:31.043Z,21.50
2017-09-05T09:59:59.359Z,21.30
2017-09-05T10:02:27.650Z,21.20
2017-09-05T10:04:55.961Z,21.60
2017-09-05T10:07:24.267Z,21.50
2017-09-05T10:09:52.577Z,21.50
2017-09-05T10:12:20.891Z,21.40
2017-09-05T10:14:49.188Z,21.40
2017-09-05T10:17:17.499Z,21.30
2017-09-05T10:19:45.804Z,21.20
2017-09-05T10:22:14.850Z,20.60
2017-09-05T10:24:43.147Z,20.60
2017-09-05T10:27:11.431Z,20.80
2017-09-05T10:29:39.755Z,20.80
2017-09-05T10:32:08.061Z,21.10
2017-09-05T10:34:36.338Z,21.30
2017-09-05T10:37:04.630Z,21.30
2017-09-05T10:39:32.920Z,21.40
2017-09-05T10:42:01.240Z,21.50
2017-09-05T10:44:29.539Z,21.70
2017-09-05T10:46:57.824Z,21.50
2017-09-05T10:49:26.111Z,21.50
2017-09-05T10:51:54.431Z,21.30
2017-09-05T10:54:23.141Z,21.20
2017-09-05T10:56:51.505Z,21.10
2017-09-05T10:59:19.803Z,21.40
2017-09-05T11:01:48.126Z,21.50
2017-09-05T11:04:16.419Z,21.60
2017-09-05T11:06:44.718Z,21.80
2017-09-05T11:09:13.003Z,21.90
2017-09-05T11:11:41.316Z,21.90
2017-09-05T11:14:09.630Z,21.90
2017-09-05T11:16:37.947Z,22.10
2017-09-05T11:19:06.271Z,22.20
2017-09-05T11:21:34.563Z,22.10
2017-09-05T11:24:03.054Z,22.20
2017-09-05T11:26:32.114Z,21.90
2017-09-05T11:29:00.412Z,21.90
2017-09-05T11:31:29.047Z,21.90
2017-09-05T11:33:57.339Z,22.10
2017-09-05T11:36:25.666Z,21.80
2017-09-05T11:38:53.951Z,21.80
2017-09-05T11:41:22.274Z,21.70
2017-09-05T11:43:50.585Z,21.70
2017-09-05T11:46:18.871Z,21.60
2017-09-05T11:48:47.162Z,21.70
2017-09-05T11:51:15.880Z,21.50
2017-09-05T11:53:44.389Z,21.40
2017-09-05T11:56:12.708Z,21.70
2017-09-05T11:58:41.012Z,21.60
2017-09-05T12:01:09.302Z,21.70
2017-09-05T12:03:37.590Z,21.50
2017-09-05T12:06:06.007Z,21.50
2017-09-05T12:08:34.302Z,21.40
2017-09-05T12:11:02.595Z,21.40
2017-09-05T12:13:30.895Z,21.90
2017-09-05T12:15:59.183Z,22.50
2017-09-05T12:18:27.514Z,22.90
2017-09-05T12:20:55.799Z,23.10
2017-09-05T12:23:24.114Z,23.10
2017-09-05T12:25:52.401Z,22.60
2017-09-05T12:28:20.718Z,22.70
2017-09-05T12:30:49.003Z,22.90
2017-09-05T12:33:18.060Z,23.00
2017-09-05T12:35:46.346Z,23.00
2017-09-05T12:38:14.631Z,23.20
2017-09-05T12:40:42.957Z,23.30
2017-09-05T12:43:11.280Z,23.60
2017-09-05T12:45:39.572Z,23.80
2017-09-05T12:48:07.891Z,24.00
2017-09-05T12:50:36.191Z,23.80
2017-09-05T12:53:04.487Z,23.60
2017-09-05T12:55:32.802Z,23.70
2017-09-05T12:58:01.118Z,23.70
2017-09-05T13:00:29.504Z,23.30
2017-09-05T13:02:58.559Z,22.70
2017-09-05T13:05:26.947Z,22.70
2017-09-05T13:07:55.261Z,22.60
2017-09-05T13:10:23.554Z,22.50
2017-09-05T13:12:51.852Z,22.20
2017-09-05T13:15:20.131Z,22.20
2017-09-05T13:17:48.451Z,22.20
2017-09-05T13:20:17.494Z,22.20
2017-09-05T13:22:45.809Z,22.20
2017-09-05T13:25:14.078Z,22.10
2017-09-05T13:27:42.367Z,22.10
2017-09-05T13:30:10.655Z,22.20
2017-09-05T13:32:39.252Z,22.30
2017-09-05T13:35:07.580Z,22.30
2017-09-05T13:37:35.878Z,22.30
2017-09-05T13:40:04.243Z,21.90
2017-09-05T13:42:32.566Z,21.90
2017-09-05T13:45:00.911Z,21.60
2017-09-05T13:47:29.203Z,21.50
2017-09-05T13:49:57.487Z,21.50
2017-09-05T13:52:25.810Z,21.70
2017-09-05T13:54:54.113Z,22.00
2017-09-05T13:57:22.454Z,22.20
2017-09-05T13:59:50.751Z,22.50
2017-09-05T14:02:19.098Z,22.70
2017-09-05T14:04:47.386Z,23.00
2017-09-05T14:07:15.702Z,23.30
2017-09-05T14:09:43.988Z,23.30
2017-09-05T14:12:12.309Z,23.20
2017-09-05T14:14:40.663Z,23.00
2017-09-05T14:17:08.985Z,23.20
2017-09-05T14:19:37.278Z,23.20
2017-09-05T14:22:05.583Z,23.00
2017-09-05T14:24:33.871Z,22.90
2017-09-05T14:27:02.160Z,22.40
2017-09-05T14:29:30.467Z,21.90
2017-09-05T14:31:58.779Z,21.80
2017-09-05T14:34:27.199Z,21.50
2017-09-05T14:36:55.483Z,21.20
2017-09-05T14:39:23.783Z,21.00
2017-09-05T14:41:52.086Z,20.70
2017-09-05T14:44:20.378Z,20.50
2017-09-05T14:46:48.800Z,20.40
2017-09-05T14:49:17.149Z,20.10
2017-09-05T14:51:46.443Z,19.90
2017-09-05T14:54:14.767Z,19.80
2017-09-05T14:56:43.073Z,19.70
2017-09-05T14:59:11.387Z,19.60
2017-09-05T15:01:39.676Z,19.50
2017-09-05T15:04:07.996Z,19.50
2017-09-05T15:06:36.316Z,19.60
2017-09-05T15:09:04.623Z,19.60
2017-09-05T15:11:32.948Z,19.70
2017-09-05T15:14:01.284Z,19.70
2017-09-05T15:16:29.576Z,19.60
2017-09-05T15:18:57.906Z,19.50
2017-09-05T15:21:26.238Z,19.50
2017-09-05T15:23:54.551Z,19.50
2017-09-05T15:26:22.900Z,19.60
2017-09-05T15:28:51.227Z,19.70
2017-09-05T15:31:19.547Z,19.70
2017-09-05T15:33:47.884Z,19.70
2017-09-05T15:36:16.162Z,19.70
2017-09-05T15:38:44.551Z,19.60
2017-09-05T15:41:13.135Z,19.60
2017-09-05T15:43:41.463Z,19.50
2017-09-05T15:46:09.844Z,19.60
2017-09-05T15:48:38.512Z,19.70
2017-09-05T15:51:06.831Z,19.70
2017-09-05T15:53:35.138Z,19.70
2017-09-05T15:56:03.430Z,19.70
2017-09-05T15:58:31.801Z,19.60
2017-09-05T16:01:00.103Z,19.60
2017-09-05T16:03:29.420Z,19.50
2017-09-05T16:05:57.745Z,19.50
2017-09-05T16:08:26.039Z,19.50
2017-09-05T16:10:54.338Z,19.50
2017-09-05T16:13:22.719Z,19.50
2017-09-05T16:15:51.014Z,19.50
2017-09-05T16:18:19.304Z,19.50
2017-09-05T16:20:47.610Z,19.50
2017-09-05T16:23:15.907Z,19.50
2017-09-05T16:25:44.192Z,19.50
2017-09-05T16:28:12.502Z,19.50
2017-09-05T16:30:40.831Z,19.60
2017-09-05T16:33:09.909Z,19.60
2017-09-05T16:35:38.213Z,19.60
2017-09-05T16:38:06.520Z,19.50
2017-09-05T16:40:36.703Z,19.50
2017-09-05T16:43:05.027Z,19.50
2017-09-05T16:45:34.116Z,19.30
2017-09-05T16:48:03.170Z,19.30
2017-09-05T16:50:31.489Z,19.30
2017-09-05T16:52:59.771Z,19.30
2017-09-05T16:55:28.100Z,19.20
2017-09-05T16:57:56.425Z,19.10
2017-09-05T17:00:24.720Z,19.00
2017-09-05T17:02:53.041Z,18.90
2017-09-05T17:05:21.352Z,18.80
2017-09-05T17:07:49.658Z,18.60
2017-09-05T17:10:17.974Z,18.60
2017-09-05T17:12:46.291Z,18.50
2017-09-05T17:15:14.578Z,18.50
2017-09-05T17:17:43.677Z,18.30
2017-09-05T17:20:11.975Z,18.30
2017-09-05T17:22:40.287Z,18.20
2017-09-05T17:25:08.581Z,18.20
2017-09-05T17:27:36.893Z,18.10
2017-09-05T17:30:05.949Z,18.00
2017-09-05T17:32:34.356Z,18.00
2017-09-05T17:35:02.943Z,18.00
2017-09-05T17:37:31.231Z,18.00
2017-09-05T17:39:59.508Z,17.90
2017-09-05T17:42:27.819Z,17.90
2017-09-05T17:44:56.115Z,17.90
2017-09-05T17:47:24.454Z,17.90
2017-09-05T17:49:52.736Z,17.90
2017-09-05T17:52:21.022Z,17.90
2017-09-05T17:54:49.315Z,17.90
2017-09-05T17:57:17.607Z,17.90
2017-09-05T17:59:45.972Z,17.90
2017-09-05T18:02:14.550Z,17.90
2017-09-05T18:04:42.863Z,17.80
2017-09-05T18:07:11.226Z,17.80
2017-09-05T18:09:39.518Z,17.70
2017-09-05T18:12:07.835Z,17.70
2017-09-05T18:14:36.111Z,17.70
2017-09-05T18:17:04.430Z,17.70
2017-09-05T18:19:32.751Z,17.60
2017-09-05T18:22:01.038Z,17.60
2017-09-05T18:24:29.371Z,17.60
2017-09-05T18:26:57.687Z,17.50
2017-09-05T18:29:25.985Z,17.50
2017-09-05T18:31:54.287Z,17.40
2017-09-05T18:34:22.562Z,17.50
2017-09-05T18:36:50.884Z,17.40
2017-09-05T18:39:19.214Z,17.30
2017-09-05T18:41:47.550Z,17.30
2017-09-05T18:44:16.878Z,17.30
2017-09-05T18:46:45.189Z,17.30
2017-09-05T18:49:13.504Z,17.30
2017-09-05T18:51:41.827Z,17.20
2017-09-05T18:54:10.123Z,17.20
2017-09-05T18:56:38.441Z,17.20
2017-09-05T18:59:06.723Z,17.10
2017-09-05T19:01:35.011Z,17.00
2017-09-05T19:04:03.335Z,17.00
2017-09-05T19:06:32.752Z,16.80
2017-09-05T19:09:01.113Z,16.80
2017-09-05T19:11:29.425Z,16.80
2017-09-05T19:13:57.734Z,16.70
2017-09-05T19:16:26.744Z,16.60
2017-09-05T19:18:55.050Z,16.50
2017-09-05T19:21:23.343Z,16.40
2017-09-05T19:23:51.641Z,16.40
2017-09-05T19:26:20.008Z,16.30
2017-09-05T19:28:48.290Z,16.20
2017-09-05T19:31:16.579Z,16.20
2017-09-05T19:33:44.905Z,16.20
2017-09-05T19:36:13.339Z,16.10
2017-09-05T19:38:41.652Z,16.20
2017-09-05T19:41:09.947Z,16.30
2017-09-05T19:43:38.279Z,16.30
2017-09-05T19:46:06.595Z,16.30
2017-09-05T19:48:34.903Z,16.20
2017-09-05T19:51:03.195Z,16.00
2017-09-05T19:53:31.511Z,15.90
2017-09-05T19:55:59.804Z,15.80
2017-09-05T19:58:28.138Z,15.80
2017-09-05T20:00:56.432Z,15.80
2017-09-05T20:03:24.783Z,15.80
2017-09-05T20:05:53.075Z,15.90
2017-09-05T20:08:21.358Z,16.00
2017-09-05T20:10:49.752Z,16.10
2017-09-05T20:13:18.060Z,16.30
2017-09-05T20:15:46.378Z,16.40
2017-09-05T20:18:14.663Z,16.60
2017-09-05T20:20:42.975Z,16.80
2017-09-05T20:23:11.258Z,16.90
2017-09-05T20:25:39.556Z,16.90
2017-09-05T20:28:07.889Z,16.80
2017-09-05T20:30:36.183Z,16.80
2017-09-05T20:33:04.471Z,16.80
2017-09-05T20:35:32.812Z,16.80
2017-09-05T20:38:01.166Z,16.90
2017-09-05T20:40:29.572Z,16.90
2017-09-05T20:42:57.848Z,16.90
2017-09-05T20:45:26.135Z,17.00
2017-09-05T20:47:54.445Z,17.00
2017-09-05T20:50:22.797Z,17.00
2017-09-05T20:52:51.087Z,17.10
2017-09-05T20:55:19.416Z,17.10
2017-09-05T20:57:48.174Z,17.20
2017-09-05T21:00:16.492Z,17.20
2017-09-05T21:02:44.797Z,17.20
2017-09-05T21:05:13.096Z,17.30
2017-09-05T21:07:41.379Z,17.30
2017-09-05T21:10:09.728Z,17.40
2017-09-05T21:12:38.013Z,17.40
2017-09-05T21:15:06.332Z,17.50
2017-09-05T21:17:35.382Z,17.50
2017-09-05T21:20:03.670Z,17.50
2017-09-05T21:22:31.970Z,17.50
2017-09-05T21:25:00.263Z,17.50
2017-09-05T21:27:28.575Z,17.50
2017-09-05T21:29:56.883Z,17.50
2017-09-05T21:32:25.180Z,17.50
2017-09-05T21:34:53.490Z,17.50
2017-09-05T21:37:21.799Z,17.50
2017-09-05T21:39:50.117Z,17.50
2017-09-05T21:42:18.403Z,17.50
2017-09-05T21:44:46.698Z,17.40
2017-09-05T21:47:14.989Z,17.30
2017-09-05T21:49:43.285Z,17.30
2017-09-05T21:52:11.594Z,17.30
2017-09-05T21:54:39.883Z,17.30
2017-09-05T21:57:08.208Z,17.30
2017-09-05T21:59:36.508Z,17.30
2017-09-05T22:02:04.834Z,17.30
2017-09-05T22:04:33.126Z,17.30
2017-09-05T22:07:01.415Z,17.30
2017-09-05T22:09:29.735Z,17.30
2017-09-05T22:11:58.023Z,17.20
2017-09-05T22:14:31.890Z,17.10
2017-09-05T22:17:00.183Z,17.10
2017-09-05T22:19:34.183Z,17.10
2017-09-05T22:22:02.922Z,17.10
2017-09-05T22:24:41.154Z,17.00
2017-09-05T22:27:15.166Z,16.90
2017-09-05T22:29:43.475Z,16.80
2017-09-05T22:32:12.561Z,16.70
2017-09-05T22:34:40.887Z,16.70
2017-09-05T22:37:09.215Z,16.60
2017-09-05T22:39:37.502Z,16.50
2017-09-05T22:42:05.818Z,16.50
2017-09-05T22:44:34.108Z,16.40
2017-09-05T22:47:02.690Z,16.40
2017-09-05T22:49:30.992Z,16.40
2017-09-05T22:51:59.271Z,16.30
2017-09-05T22:54:27.587Z,16.30
2017-09-05T22:56:55.859Z,16.30
2017-09-05T22:59:24.145Z,16.40
2017-09-05T23:01:52.459Z,16.40
2017-09-05T23:04:20.738Z,16.40
2017-09-05T23:06:49.955Z,16.40
2017-09-05T23:09:19.008Z,16.50
2017-09-05T23:11:47.294Z,16.50
2017-09-05T23:14:15.615Z,16.50
2017-09-05T23:16:43.913Z,16.50
2017-09-05T23:19:12.201Z,16.50
2017-09-05T23:21:40.482Z,16.50
2017-09-05T23:24:08.767Z,16.50
2017-09-05T23:26:37.082Z,16.50
2017-09-05T23:29:06.137Z,16.50
2017-09-05T23:31:34.457Z,16.50
2017-09-05T23:34:02.718Z,16.50
2017-09-05T23:36:31.045Z,16.50
2017-09-05T23:38:59.349Z,16.40
2017-09-05T23:41:28.402Z,16.40
2017-09-05T23:43:56.713Z,16.40
2017-09-05T23:46:25.002Z,16.40
2017-09-05T23:48:53.287Z,16.30
2017-09-05T23:51:21.595Z,16.30
2017-09-05T23:53:50.009Z,16.30
2017-09-05T23:56:18.299Z,16.20
2017-09-05T23:58:46.586Z,16.30
